Yuci, China
Current Conditions -  °F | °C
As of 2:00 AM on Friday 31 Oct 2014 (Local Time) from ZBYN Reporting Station
Haze Haze  
Wind Chill: 52°   Ceiling: Unl
Heat Index: 52°   Visibility: 2.5mi
Dew Point: 43°   Wind: 7mph
Humidity: 71%   Direction: 90°E
Pressure: 30.12"   Gusts: NA
Location:  37.68°N, 112.73°E
Report Text: ZBYN 301800Z 09003MPS 4000 HZ NSC 11/06 Q1020 NOSIG
Loading
Personal Weather Stations






























Interactive Weather Map
Tropical Storm Tracking
New forecast layout! Learn more

10-Day Weather Forecast

Advertisements
Track Severe Weather on mobile